HUAL Seoul — LADO6 — position and weather

sailwx.info

Track history (hours):
 
Tides and Currents Weather Stations Pressure Air Temp Water Temp Dewpoint Dewpoint Depression Visibility Wind Speed Wind Dir Waves Ship Positions

HUAL Seoul

Last reported at 2017-Aug-15 07:53 UTC. Time now 2017-Aug-21 14:11 UTC.
Position N 01°19' E 103°20'.

Type: Cargo ship. MMSI: 257496000.

Date/timePositionNaut miles runAvg speedWind from/ knotsBaromVisibWave heightAir tempDewpointWater temp
2017-Aug-15 07:53N 01°19' E 103°20'614.1
2017-Aug-15 07:29N 01°15' E 103°24'714.4
2017-Aug-15 07:00N 01°13' E 103°31'713.3
2017-Aug-15 06:30N 01°11' E 103°37'612.4
2017-Aug-15 06:00N 01°09' E 103°43'611.9
2017-Aug-15 05:30N 01°11' E 103°49'612.5
2017-Aug-15 05:00N 01°13' E 103°55'611.5
2017-Aug-15 04:30N 01°15' E 104°00'4 7.7
2017-Aug-15 04:00N 01°18' E 104°03'1 1.3
2017-Aug-15 03:30N 01°18' E 104°03'0 0.0
2017-Aug-15 02:17N 01°18' E 104°03'0 0.0
2017-Aug-15 01:41N 01°18' E 104°03'0 0.0
2017-Aug-15 01:29N 01°18' E 104°03'0 0.0
2017-Aug-15 00:56N 01°18' E 104°03'0 0.0
2017-Aug-15 00:11N 01°18' E 104°03'0 0.0
2017-Aug-14 23:59N 01°18' E 104°03'0 0.0
2017-Aug-14 22:26N 01°18' E 104°03'0 0.0
2017-Aug-14 21:08N 01°18' E 104°03'0 0.0
2017-Aug-14 20:59N 01°18' E 104°03'0 0.0
2017-Aug-14 20:26N 01°18' E 104°03'0 0.0
2017-Aug-14 18:47N 01°18' E 104°03'0 0.0
2017-Aug-14 17:38N 01°18' E 104°03'0 0.0
2017-Aug-14 16:26N 01°18' E 104°03'1 2.2
2017-Aug-14 15:58N 01°18' E 104°04'3 5.9
2017-Aug-14 15:30N 01°17' E 104°07'5 8.7
2017-Aug-14 14:59N 01°18' E 104°12'  
2017-Aug-09 06:17N 29°16' E 122°55'514.7
2017-Aug-09 05:58N 29°20' E 122°57'810.1
2017-Aug-09 05:12N 29°27' E 123°02'211.4
2017-Aug-09 04:59N 29°29' E 123°03'613.1
2017-Aug-09 04:29N 29°35' E 123°07'712.8
2017-Aug-09 03:58N 29°41' E 123°11'914.1
2017-Aug-09 03:20N 29°49' E 123°15'615.2
2017-Aug-09 02:58N 29°54' E 123°18'3215.3
2017-Aug-09 00:54N 30°21' E 123°35'817.1
2017-Aug-09 00:28N 30°28' E 123°41'7115.3
2017-Aug-08 19:50N 31°06' E 122°31'514.0
2017-Aug-08 19:30N 31°06' E 122°26'714.5
2017-Aug-08 19:00N 31°07' E 122°17'815.2
2017-Aug-08 18:30N 31°11' E 122°10'611.4
2017-Aug-08 18:00N 31°14' E 122°04'613.0
2017-Aug-08 17:30N 31°15' E 121°57'714.4
2017-Aug-08 17:00N 31°17' E 121°49'611.2
2017-Aug-08 16:30N 31°19' E 121°43'2 3.3
2017-Aug-08 16:00N 31°19' E 121°41'0 0.0
2017-Aug-08 15:30N 31°19' E 121°41'0 0.0
2017-Aug-08 15:00N 31°19' E 121°41'0 0.0
2017-Aug-08 14:30N 31°19' E 121°41'0 0.0
2017-Aug-08 13:54N 31°19' E 121°41'0 0.0
2017-Aug-08 13:27N 31°19' E 121°41'0 0.0
2017-Aug-08 12:59N 31°19' E 121°41'0 0.0
2017-Aug-08 12:27N 31°19' E 121°41'0 0.0
2017-Aug-08 12:00N 31°19' E 121°41'0 0.0
2017-Aug-08 11:24N 31°19' E 121°41'0 0.0
2017-Aug-08 11:00N 31°19' E 121°41'0 0.0
2017-Aug-08 10:29N 31°19' E 121°41'0 0.0
2017-Aug-08 10:00N 31°19' E 121°41'0 0.0
2017-Aug-08 09:30N 31°19' E 121°41'0 0.0
2017-Aug-08 08:59N 31°19' E 121°41'0 0.0
2017-Aug-08 08:30N 31°19' E 121°41'0 0.0
2017-Aug-08 07:54N 31°19' E 121°41'0 0.0
2017-Aug-08 07:29N 31°19' E 121°41'0 0.0
2017-Aug-08 07:00N 31°19' E 121°41'0 0.0
2017-Aug-08 06:30N 31°19' E 121°41'0 0.0
2017-Aug-08 06:00N 31°19' E 121°41'0 0.1
2017-Aug-08 05:31N 31°19' E 121°41'1 2.9
2017-Aug-08 05:01N 31°20' E 121°42'5 9.7
2017-Aug-08 04:30N 31°18' E 121°48'510.8
2017-Aug-08 04:01N 31°16' E 121°54'510.5
2017-Aug-08 03:30N 31°15' E 121°60'5 9.9
2017-Aug-08 03:01N 31°14' E 122°05'5 9.1
2017-Aug-08 02:30N 31°11' E 122°10'510.2
2017-Aug-08 02:01N 31°08' E 122°15'510.6
2017-Aug-08 01:30N 31°06' E 122°20'4 7.4
2017-Aug-08 01:00N 31°07' E 122°25'4 8.1
2017-Aug-08 00:30N 31°07' E 122°29'5 9.3
2017-Aug-07 23:58N 31°07' E 122°35'3 7.3
2017-Aug-07 23:30N 31°07' E 122°39'3 7.2
2017-Aug-07 23:00N 31°07' E 122°43'4 7.4
2017-Aug-07 22:30N 31°07' E 122°48'1 2.8
2017-Aug-07 22:00N 31°07' E 122°49'0 0.1
2017-Aug-07 21:27N 31°07' E 122°49'0 0.1
2017-Aug-07 21:00N 31°07' E 122°49'0 0.0
2017-Aug-07 20:27N 31°07' E 122°49'0 0.1
2017-Aug-07 19:45N 31°07' E 122°49'0 0.2
2017-Aug-07 19:24N 31°07' E 122°49'0 0.0
2017-Aug-07 18:42N 31°07' E 122°49'0 0.0
2017-Aug-07 18:24N 31°07' E 122°49'0 0.0
2017-Aug-07 17:57N 31°07' E 122°49'0 0.1
2017-Aug-07 17:30N 31°07' E 122°49'0 0.0
2017-Aug-07 16:15N 31°07' E 122°49'0 0.0
2017-Aug-07 15:48N 31°07' E 122°49'0 0.0
2017-Aug-07 15:27N 31°07' E 122°49'0 0.0
2017-Aug-07 14:51N 31°07' E 122°49'0 0.1
2017-Aug-07 14:30N 31°07' E 122°49'0 0.0
2017-Aug-07 10:18N 31°07' E 122°49'0 0.2
2017-Aug-07 10:00N 31°07' E 122°49'0 0.0
2017-Aug-07 09:30N 31°07' E 122°49'0 0.1
2017-Aug-07 08:57N 31°07' E 122°49'0 0.0
2017-Aug-07 08:15N 31°07' E 122°49'0 0.0
2017-Aug-07 07:57N 31°07' E 122°49'0 0.0
2017-Aug-07 07:27N 31°07' E 122°49'0 0.0
2017-Aug-07 06:57N 31°07' E 122°49'0 0.1
2017-Aug-07 06:30N 31°07' E 122°49'0 0.1
2017-Aug-07 05:57N 31°07' E 122°49'0 0.1
2017-Aug-07 05:00N 31°07' E 122°49'0 0.1
2017-Aug-07 03:51N 31°07' E 122°49'0 0.0
2017-Aug-07 03:30N 31°07' E 122°49'0 0.0
2017-Aug-07 03:00N 31°07' E 122°49'0 0.0
2017-Aug-07 02:27N 31°07' E 122°49'0 0.0
2017-Aug-07 01:57N 31°07' E 122°49'0 0.0
2017-Aug-07 01:30N 31°07' E 122°49'0 0.0
2017-Aug-07 00:57N 31°07' E 122°49'0 0.0
2017-Aug-07 00:27N 31°07' E 122°49'0 0.0
2017-Aug-07 00:00N 31°07' E 122°49'0 0.3
2017-Aug-06 23:30N 31°07' E 122°49'0 0.2
2017-Aug-06 23:00N 31°07' E 122°49'0 0.2
2017-Aug-06 22:30N 31°07' E 122°49'2 4.0
2017-Aug-06 22:00N 31°06' E 122°51'3 6.2
2017-Aug-06 21:30N 31°06' E 122°55'4 8.6
2017-Aug-06 21:00N 31°06' E 123°00'5 9.2
2017-Aug-06 20:30N 31°06' E 123°05'4 8.2
2017-Aug-06 20:00N 31°06' E 123°10'4 8.5
2017-Aug-06 19:30N 31°07' E 123°15'5 8.9
2017-Aug-06 18:59N 31°07' E 123°21'4 8.9
2017-Aug-06 18:28N 31°07' E 123°26'75 2.6
2017-Aug-05 13:58N 31°53' E 124°35'3 6.1
2017-Aug-05 13:30N 31°56' E 124°35'33 6.7
2017-Aug-05 08:35N 32°29' E 124°34'4 8.6
2017-Aug-05 08:04N 32°34' E 124°34'1 8.5
2017-Aug-05 08:00N 32°34' E 124°34'  
Track history (hours):
 
Tides and Currents Weather Stations Pressure Air Temp Water Temp Dewpoint Dewpoint Depression Visibility Wind Speed Wind Dir Waves Ship Positions

HUAL Seoul

Last reported at 2017-Aug-15 07:53 UTC. Time now 2017-Aug-21 14:11 UTC.
Position N 01°19' E 103°20'.

Type: Cargo ship. MMSI: 257496000.

Date/timePositionNaut miles runAvg speedWind from/ knotsBaromVisibWave heightAir tempDewpointWater temp
2017-Aug-15 07:53N 01°19' E 103°20'614.1
2017-Aug-15 07:29N 01°15' E 103°24'714.4
2017-Aug-15 07:00N 01°13' E 103°31'713.3
2017-Aug-15 06:30N 01°11' E 103°37'612.4
2017-Aug-15 06:00N 01°09' E 103°43'611.9
2017-Aug-15 05:30N 01°11' E 103°49'612.5
2017-Aug-15 05:00N 01°13' E 103°55'611.5
2017-Aug-15 04:30N 01°15' E 104°00'4 7.7
2017-Aug-15 04:00N 01°18' E 104°03'1 1.3
2017-Aug-15 03:30N 01°18' E 104°03'0 0.0
2017-Aug-15 02:17N 01°18' E 104°03'0 0.0
2017-Aug-15 01:41N 01°18' E 104°03'0 0.0
2017-Aug-15 01:29N 01°18' E 104°03'0 0.0
2017-Aug-15 00:56N 01°18' E 104°03'0 0.0
2017-Aug-15 00:11N 01°18' E 104°03'0 0.0
2017-Aug-14 23:59N 01°18' E 104°03'0 0.0
2017-Aug-14 22:26N 01°18' E 104°03'0 0.0
2017-Aug-14 21:08N 01°18' E 104°03'0 0.0
2017-Aug-14 20:59N 01°18' E 104°03'0 0.0
2017-Aug-14 20:26N 01°18' E 104°03'0 0.0
2017-Aug-14 18:47N 01°18' E 104°03'0 0.0
2017-Aug-14 17:38N 01°18' E 104°03'0 0.0
2017-Aug-14 16:26N 01°18' E 104°03'1 2.2
2017-Aug-14 15:58N 01°18' E 104°04'3 5.9
2017-Aug-14 15:30N 01°17' E 104°07'5 8.7
2017-Aug-14 14:59N 01°18' E 104°12'  
2017-Aug-09 06:17N 29°16' E 122°55'514.7
2017-Aug-09 05:58N 29°20' E 122°57'810.1
2017-Aug-09 05:12N 29°27' E 123°02'211.4
2017-Aug-09 04:59N 29°29' E 123°03'613.1
2017-Aug-09 04:29N 29°35' E 123°07'712.8
2017-Aug-09 03:58N 29°41' E 123°11'914.1
2017-Aug-09 03:20N 29°49' E 123°15'615.2
2017-Aug-09 02:58N 29°54' E 123°18'3215.3
2017-Aug-09 00:54N 30°21' E 123°35'817.1
2017-Aug-09 00:28N 30°28' E 123°41'7115.3
2017-Aug-08 19:50N 31°06' E 122°31'514.0
2017-Aug-08 19:30N 31°06' E 122°26'714.5
2017-Aug-08 19:00N 31°07' E 122°17'815.2
2017-Aug-08 18:30N 31°11' E 122°10'611.4
2017-Aug-08 18:00N 31°14' E 122°04'613.0
2017-Aug-08 17:30N 31°15' E 121°57'714.4
2017-Aug-08 17:00N 31°17' E 121°49'611.2
2017-Aug-08 16:30N 31°19' E 121°43'2 3.3
2017-Aug-08 16:00N 31°19' E 121°41'0 0.0
2017-Aug-08 15:30N 31°19' E 121°41'0 0.0
2017-Aug-08 15:00N 31°19' E 121°41'0 0.0
2017-Aug-08 14:30N 31°19' E 121°41'0 0.0
2017-Aug-08 13:54N 31°19' E 121°41'0 0.0
2017-Aug-08 13:27N 31°19' E 121°41'0 0.0
2017-Aug-08 12:59N 31°19' E 121°41'0 0.0
2017-Aug-08 12:27N 31°19' E 121°41'0 0.0
2017-Aug-08 12:00N 31°19' E 121°41'0 0.0
2017-Aug-08 11:24N 31°19' E 121°41'0 0.0
2017-Aug-08 11:00N 31°19' E 121°41'0 0.0
2017-Aug-08 10:29N 31°19' E 121°41'0 0.0
2017-Aug-08 10:00N 31°19' E 121°41'0 0.0
2017-Aug-08 09:30N 31°19' E 121°41'0 0.0
2017-Aug-08 08:59N 31°19' E 121°41'0 0.0
2017-Aug-08 08:30N 31°19' E 121°41'0 0.0
2017-Aug-08 07:54N 31°19' E 121°41'0 0.0
2017-Aug-08 07:29N 31°19' E 121°41'0 0.0
2017-Aug-08 07:00N 31°19' E 121°41'0 0.0
2017-Aug-08 06:30N 31°19' E 121°41'0 0.0
2017-Aug-08 06:00N 31°19' E 121°41'0 0.1
2017-Aug-08 05:31N 31°19' E 121°41'1 2.9
2017-Aug-08 05:01N 31°20' E 121°42'5 9.7
2017-Aug-08 04:30N 31°18' E 121°48'510.8
2017-Aug-08 04:01N 31°16' E 121°54'510.5
2017-Aug-08 03:30N 31°15' E 121°60'5 9.9
2017-Aug-08 03:01N 31°14' E 122°05'5 9.1
2017-Aug-08 02:30N 31°11' E 122°10'510.2
2017-Aug-08 02:01N 31°08' E 122°15'510.6
2017-Aug-08 01:30N 31°06' E 122°20'4 7.4
2017-Aug-08 01:00N 31°07' E 122°25'4 8.1
2017-Aug-08 00:30N 31°07' E 122°29'5 9.3
2017-Aug-07 23:58N 31°07' E 122°35'3 7.3
2017-Aug-07 23:30N 31°07' E 122°39'3 7.2
2017-Aug-07 23:00N 31°07' E 122°43'4 7.4
2017-Aug-07 22:30N 31°07' E 122°48'1 2.8
2017-Aug-07 22:00N 31°07' E 122°49'0 0.1
2017-Aug-07 21:27N 31°07' E 122°49'0 0.1
2017-Aug-07 21:00N 31°07' E 122°49'0 0.0
2017-Aug-07 20:27N 31°07' E 122°49'0 0.1
2017-Aug-07 19:45N 31°07' E 122°49'0 0.2
2017-Aug-07 19:24N 31°07' E 122°49'0 0.0
2017-Aug-07 18:42N 31°07' E 122°49'0 0.0
2017-Aug-07 18:24N 31°07' E 122°49'0 0.0
2017-Aug-07 17:57N 31°07' E 122°49'0 0.1
2017-Aug-07 17:30N 31°07' E 122°49'0 0.0
2017-Aug-07 16:15N 31°07' E 122°49'0 0.0
2017-Aug-07 15:48N 31°07' E 122°49'0 0.0
2017-Aug-07 15:27N 31°07' E 122°49'0 0.0
2017-Aug-07 14:51N 31°07' E 122°49'0 0.1
2017-Aug-07 14:30N 31°07' E 122°49'0 0.0
2017-Aug-07 10:18N 31°07' E 122°49'0 0.2
2017-Aug-07 10:00N 31°07' E 122°49'0 0.0
2017-Aug-07 09:30N 31°07' E 122°49'0 0.1
2017-Aug-07 08:57N 31°07' E 122°49'0 0.0
2017-Aug-07 08:15N 31°07' E 122°49'0 0.0
2017-Aug-07 07:57N 31°07' E 122°49'0 0.0
2017-Aug-07 07:27N 31°07' E 122°49'0 0.0
2017-Aug-07 06:57N 31°07' E 122°49'0 0.1
2017-Aug-07 06:30N 31°07' E 122°49'0 0.1
2017-Aug-07 05:57N 31°07' E 122°49'0 0.1
2017-Aug-07 05:00N 31°07' E 122°49'0 0.1
2017-Aug-07 03:51N 31°07' E 122°49'0 0.0
2017-Aug-07 03:30N 31°07' E 122°49'0 0.0
2017-Aug-07 03:00N 31°07' E 122°49'0 0.0
2017-Aug-07 02:27N 31°07' E 122°49'0 0.0
2017-Aug-07 01:57N 31°07' E 122°49'0 0.0
2017-Aug-07 01:30N 31°07' E 122°49'0 0.0
2017-Aug-07 00:57N 31°07' E 122°49'0 0.0
2017-Aug-07 00:27N 31°07' E 122°49'0 0.0
2017-Aug-07 00:00N 31°07' E 122°49'0 0.3
2017-Aug-06 23:30N 31°07' E 122°49'0 0.2
2017-Aug-06 23:00N 31°07' E 122°49'0 0.2
2017-Aug-06 22:30N 31°07' E 122°49'2 4.0
2017-Aug-06 22:00N 31°06' E 122°51'3 6.2
2017-Aug-06 21:30N 31°06' E 122°55'4 8.6
2017-Aug-06 21:00N 31°06' E 123°00'5 9.2
2017-Aug-06 20:30N 31°06' E 123°05'4 8.2
2017-Aug-06 20:00N 31°06' E 123°10'4 8.5
2017-Aug-06 19:30N 31°07' E 123°15'5 8.9
2017-Aug-06 18:59N 31°07' E 123°21'4 8.9
2017-Aug-06 18:28N 31°07' E 123°26'75 2.6
2017-Aug-05 13:58N 31°53' E 124°35'3 6.1
2017-Aug-05 13:30N 31°56' E 124°35'33 6.7
2017-Aug-05 08:35N 32°29' E 124°34'4 8.6
2017-Aug-05 08:04N 32°34' E 124°34'1 8.5
2017-Aug-05 08:00N 32°34' E 124°34'  

Dump ship's entire track history